sensor_id;sensor_type;location;lat;lon;timestamp;temperature;humidity
51968;DHT22;75327;42.568;23.176;2024-03-08T00:08:48;3.10;99.90
51968;DHT22;75327;42.568;23.176;2024-03-08T00:23:50;3.10;99.90
51968;DHT22;75327;42.568;23.176;2024-03-08T00:38:53;3.00;99.90
51968;DHT22;75327;42.568;23.176;2024-03-08T00:53:55;3.00;99.90
51968;DHT22;75327;42.568;23.176;2024-03-08T01:08:58;3.00;99.90
51968;DHT22;75327;42.568;23.176;2024-03-08T01:24:00;3.00;99.90
51968;DHT22;75327;42.568;23.176;2024-03-08T01:39:02;3.00;99.90
51968;DHT22;75327;42.568;23.176;2024-03-08T01:54:11;3.00;99.90
51968;DHT22;75327;42.568;23.176;2024-03-08T02:09:15;3.00;99.90
51968;DHT22;75327;42.568;23.176;2024-03-08T02:24:19;3.00;99.90
51968;DHT22;75327;42.568;23.176;2024-03-08T02:39:21;3.00;99.90
51968;DHT22;75327;42.568;23.176;2024-03-08T02:54:24;2.90;99.90
51968;DHT22;75327;42.568;23.176;2024-03-08T03:09:26;2.90;99.90
51968;DHT22;75327;42.568;23.176;2024-03-08T03:24:30;2.80;99.90
51968;DHT22;75327;42.568;23.176;2024-03-08T03:39:32;2.80;99.90
51968;DHT22;75327;42.568;23.176;2024-03-08T03:54:36;2.80;99.90
51968;DHT22;75327;42.568;23.176;2024-03-08T04:09:38;2.80;99.90
51968;DHT22;75327;42.568;23.176;2024-03-08T04:24:40;2.80;99.90
51968;DHT22;75327;42.568;23.176;2024-03-08T04:39:42;2.70;99.90
51968;DHT22;75327;42.568;23.176;2024-03-08T04:54:44;2.80;99.90
51968;DHT22;75327;42.568;23.176;2024-03-08T05:09:46;2.80;99.90
51968;DHT22;75327;42.568;23.176;2024-03-08T05:24:54;2.70;99.90
51968;DHT22;75327;42.568;23.176;2024-03-08T05:39:56;2.80;99.90
51968;DHT22;75327;42.568;23.176;2024-03-08T05:54:58;2.80;99.90
51968;DHT22;75327;42.568;23.176;2024-03-08T06:10:00;2.80;99.90
51968;DHT22;75327;42.568;23.176;2024-03-08T06:25:05;2.90;99.90
51968;DHT22;75327;42.568;23.176;2024-03-08T06:40:08;2.90;99.90
51968;DHT22;75327;42.568;23.176;2024-03-08T06:55:12;3.00;99.90
51968;DHT22;75327;42.568;23.176;2024-03-08T07:10:14;3.20;99.90
51968;DHT22;75327;42.568;23.176;2024-03-08T07:25:17;3.30;99.90
51968;DHT22;75327;42.568;23.176;2024-03-08T07:40:19;3.20;99.90
51968;DHT22;75327;42.568;23.176;2024-03-08T07:55:21;3.30;99.90
51968;DHT22;75327;42.568;23.176;2024-03-08T08:10:26;3.30;99.90
51968;DHT22;75327;42.568;23.176;2024-03-08T08:25:30;3.50;99.90
51968;DHT22;75327;42.568;23.176;2024-03-08T08:40:33;3.60;99.90
51968;DHT22;75327;42.568;23.176;2024-03-08T08:55:35;3.80;99.90
51968;DHT22;75327;42.568;23.176;2024-03-08T09:10:38;3.90;99.90
51968;DHT22;75327;42.568;23.176;2024-03-08T09:25:41;4.00;99.90
51968;DHT22;75327;42.568;23.176;2024-03-08T09:40:45;4.30;99.90
51968;DHT22;75327;42.568;23.176;2024-03-08T09:55:48;4.50;99.90
51968;DHT22;75327;42.568;23.176;2024-03-08T10:10:51;4.50;99.90
51968;DHT22;75327;42.568;23.176;2024-03-08T10:25:54;5.00;99.90
51968;DHT22;75327;42.568;23.176;2024-03-08T10:40:56;5.20;99.90
51968;DHT22;75327;42.568;23.176;2024-03-08T10:55:59;5.40;99.90
51968;DHT22;75327;42.568;23.176;2024-03-08T11:11:02;5.40;99.90
51968;DHT22;75327;42.568;23.176;2024-03-08T11:26:17;5.40;99.90
51968;DHT22;75327;42.568;23.176;2024-03-08T11:41:22;5.50;99.90
51968;DHT22;75327;42.568;23.176;2024-03-08T11:56:26;5.50;99.90
51968;DHT22;75327;42.568;23.176;2024-03-08T12:11:29;5.70;99.90
51968;DHT22;75327;42.568;23.176;2024-03-08T12:26:37;5.70;99.90
51968;DHT22;75327;42.568;23.176;2024-03-08T12:41:40;5.70;99.90
51968;DHT22;75327;42.568;23.176;2024-03-08T12:56:42;5.70;99.90
51968;DHT22;75327;42.568;23.176;2024-03-08T13:11:44;5.80;99.90
51968;DHT22;75327;42.568;23.176;2024-03-08T13:26:47;6.10;99.90
51968;DHT22;75327;42.568;23.176;2024-03-08T13:41:50;6.20;99.90
51968;DHT22;75327;42.568;23.176;2024-03-08T13:56:52;6.40;99.90
51968;DHT22;75327;42.568;23.176;2024-03-08T14:11:56;6.50;99.90
51968;DHT22;75327;42.568;23.176;2024-03-08T14:26:58;6.50;97.10
51968;DHT22;75327;42.568;23.176;2024-03-08T14:42:01;6.40;99.90
51968;DHT22;75327;42.568;23.176;2024-03-08T14:57:04;6.30;99.90
51968;DHT22;75327;42.568;23.176;2024-03-08T15:12:09;6.10;99.90
51968;DHT22;75327;42.568;23.176;2024-03-08T15:27:11;6.10;99.90
51968;DHT22;75327;42.568;23.176;2024-03-08T15:42:13;6.10;99.90
51968;DHT22;75327;42.568;23.176;2024-03-08T15:57:15;5.90;99.90
51968;DHT22;75327;42.568;23.176;2024-03-08T16:12:20;5.60;99.90
51968;DHT22;75327;42.568;23.176;2024-03-08T16:27:22;5.20;99.90
51968;DHT22;75327;42.568;23.176;2024-03-08T16:42:24;5.00;99.90
51968;DHT22;75327;42.568;23.176;2024-03-08T16:57:26;4.70;99.90
51968;DHT22;75327;42.568;23.176;2024-03-08T17:12:31;4.50;99.90
51968;DHT22;75327;42.568;23.176;2024-03-08T17:27:33;4.40;99.90
51968;DHT22;75327;42.568;23.176;2024-03-08T17:42:38;4.30;99.90
51968;DHT22;75327;42.568;23.176;2024-03-08T18:12:48;4.10;99.90
51968;DHT22;75327;42.568;23.176;2024-03-08T18:27:50;4.00;99.90
51968;DHT22;75327;42.568;23.176;2024-03-08T18:42:53;3.80;99.90
51968;DHT22;75327;42.568;23.176;2024-03-08T18:57:56;3.60;99.90
51968;DHT22;75327;42.568;23.176;2024-03-08T19:13:04;3.50;99.90
51968;DHT22;75327;42.568;23.176;2024-03-08T19:28:08;3.40;99.90
51968;DHT22;75327;42.568;23.176;2024-03-08T19:43:12;3.40;99.90
51968;DHT22;75327;42.568;23.176;2024-03-08T19:58:17;3.30;99.90
51968;DHT22;75327;42.568;23.176;2024-03-08T20:13:20;3.20;99.90
51968;DHT22;75327;42.568;23.176;2024-03-08T20:28:23;3.20;99.90
51968;DHT22;75327;42.568;23.176;2024-03-08T20:43:28;2.90;99.90
51968;DHT22;75327;42.568;23.176;2024-03-08T20:58:31;2.70;99.90
51968;DHT22;75327;42.568;23.176;2024-03-08T21:13:33;2.50;99.90
51968;DHT22;75327;42.568;23.176;2024-03-08T21:28:37;2.10;99.90
51968;DHT22;75327;42.568;23.176;2024-03-08T21:43:40;1.80;99.90
51968;DHT22;75327;42.568;23.176;2024-03-08T21:58:42;1.70;99.90
51968;DHT22;75327;42.568;23.176;2024-03-08T22:13:45;1.70;99.90
51968;DHT22;75327;42.568;23.176;2024-03-08T22:28:48;1.60;99.90
51968;DHT22;75327;42.568;23.176;2024-03-08T22:43:53;1.60;99.90
51968;DHT22;75327;42.568;23.176;2024-03-08T22:58:55;1.50;99.90
51968;DHT22;75327;42.568;23.176;2024-03-08T23:13:58;1.60;99.90
51968;DHT22;75327;42.568;23.176;2024-03-08T23:29:01;1.50;99.90
51968;DHT22;75327;42.568;23.176;2024-03-08T23:44:04;1.60;99.90
51968;DHT22;75327;42.568;23.176;2024-03-08T23:59:09;1.80;99.90
